Weather reports worldwide

Advertisment
Lorca, Spain (8426): temperature & dewpoint: 16.06.2018 15:00:00 - 22.06.2018 15:00:00 (CEST)Lorca, Spain (8426): wind speed & gusts: 16.06.2018 15:00:00 - 22.06.2018 15:00:00 (CEST)Lorca, Spain (8426): wind direction: 16.06.2018 15:00:00 - 22.06.2018 15:00:00 (CEST)Lorca, Spain (8426): precipitation: 16.06.2018 15:00:00 - 22.06.2018 15:00:00 (CEST)
Date & Time tt [°C] td [°C] ff [km/h] ff [kn] fx [km/h] fx [kn] dd rr [mm]
22.06.2018 15:00:00 - - - - - - - -
22.06.2018 14:00:00 33,0 16,4 6 3 25 13 ENE -
22.06.2018 13:00:00 31,1 15,5 8 4 21 12 NE 0,0
22.06.2018 12:00:00 30,2 15,1 4 2 19 10 ENE 0,0
22.06.2018 11:00:00 27,8 14,8 6 3 12 6 NE 0,0
22.06.2018 10:00:00 24,2 14,3 1 1 5 3 NNE 0,0
22.06.2018 09:00:00 20,1 12,8 3 2 7 4 SW 0,0
22.06.2018 08:00:00 18,3 11,8 1 0 6 3 W -
22.06.2018 07:00:00 17,6 11,4 0 0 12 7 N 0,0
22.06.2018 06:00:00 18,5 11,6 6 3 16 8 NNW 0,0
22.06.2018 05:00:00 19,3 11,3 1 1 11 6 NNW 0,0
22.06.2018 04:00:00 19,5 11,2 2 1 9 5 N 0,0
22.06.2018 03:00:00 20,2 11,9 3 2 10 5 NNE 0,0
22.06.2018 02:00:00 20,4 12,6 3 1 7 4 N -
22.06.2018 01:00:00 20,9 13,1 0 0 2 1 N 0,0
22.06.2018 00:00:00 22,5 13,1 0 0 7 4 N 0,0
21.06.2018 23:00:00 24,1 13,1 3 1 15 8 ENE 0,0
21.06.2018 22:00:00 25,6 13,2 9 5 15 8 NE 0,0
21.06.2018 21:00:00 28,1 13,9 4 2 23 12 NE 0,0
21.06.2018 20:00:00 30,0 15,3 1 1 14 8 ENE -
21.06.2018 19:00:00 29,7 15,1 4 2 17 9 ESE 0,0
21.06.2018 18:00:00 30,8 15,6 4 2 17 9 ESE 0,0
21.06.2018 17:00:00 32,9 15,4 5 3 22 12 E 0,0
21.06.2018 16:00:00 32,3 14,9 6 3 23 12 ENE 0,0
21.06.2018 15:00:00 32,5 15,5 5 3 27 14 E 0,0
21.06.2018 14:00:00 31,5 16,2 6 3 25 13 ENE -
21.06.2018 13:00:00 30,4 15,7 6 4 20 11 E 0,0
21.06.2018 12:00:00 28,9 16,1 4 2 14 8 ENE 0,0
21.06.2018 11:00:00 26,2 15,9 4 2 11 6 ENE 0,0
21.06.2018 10:00:00 23,7 14,1 3 1 11 6 N 0,0
21.06.2018 09:00:00 20,9 13,6 5 3 13 7 N 0,0
21.06.2018 08:00:00 18,2 12,0 9 5 16 9 NW -
21.06.2018 07:00:00 17,4 11,7 6 3 12 7 N 0,0
21.06.2018 06:00:00 17,4 11,7 7 4 13 7 NNE 0,0
21.06.2018 05:00:00 18,2 12,2 2 1 6 3 NNE 0,0
21.06.2018 04:00:00 18,6 12,3 2 1 7 4 N 0,0
21.06.2018 03:00:00 19,6 13,1 3 2 8 5 N 0,0
21.06.2018 02:00:00 20,3 13,5 3 2 10 6 N -
21.06.2018 01:00:00 21,0 14,9 2 1 11 6 NNE 0,0
21.06.2018 00:00:00 21,8 14,7 4 2 14 8 NE 0,0
20.06.2018 23:00:00 22,7 14,0 9 5 16 8 NE 0,0
20.06.2018 22:00:00 23,9 14,0 8 4 17 9 ENE 0,0
20.06.2018 21:00:00 26,8 14,5 7 4 17 9 ENE 0,0
20.06.2018 20:00:00 28,8 15,0 5 3 16 9 E -
20.06.2018 19:00:00 30,2 15,9 4 2 17 9 E 0,0
20.06.2018 18:00:00 31,4 16,1 3 2 27 15 E 0,0
20.06.2018 17:00:00 31,6 16,4 8 4 27 15 ENE 0,0
20.06.2018 16:00:00 31,4 16,6 8 4 26 14 ENE 0,0
20.06.2018 15:00:00 30,4 15,7 6 3 24 13 E 0,0
20.06.2018 14:00:00 29,3 15,1 11 6 28 15 NE -
20.06.2018 13:00:00 28,7 16,0 8 5 21 11 NE 0,0
20.06.2018 12:00:00 26,6 14,7 7 4 19 11 NE 0,0
20.06.2018 11:00:00 24,7 14,5 2 1 9 5 NE 0,0
20.06.2018 10:00:00 23,0 14,5 3 2 8 4 NE 0,0
20.06.2018 09:00:00 20,2 13,9 3 2 9 5 N 0,0
20.06.2018 08:00:00 17,7 12,5 3 2 13 7 N -
20.06.2018 07:00:00 16,8 12,1 5 3 11 6 NW 0,0
20.06.2018 06:00:00 17,3 12,4 0 0 10 5 W 0,0
20.06.2018 05:00:00 17,9 12,7 5 3 11 6 N 0,0
20.06.2018 04:00:00 18,5 13,2 4 2 10 5 N 0,0
20.06.2018 03:00:00 18,3 13,4 1 1 5 3 N 0,0
20.06.2018 02:00:00 18,7 13,6 0 0 0 0 N -
20.06.2018 01:00:00 19,7 14,0 0 0 4 2 N 0,0
20.06.2018 00:00:00 20,6 14,0 0 0 8 5 ENE 0,0
19.06.2018 23:00:00 21,4 13,4 1 0 5 3 NE 0,0
19.06.2018 22:00:00 22,7 13,8 0 0 8 4 N 0,0
19.06.2018 21:00:00 24,6 14,0 2 1 12 6 ESE 0,0
19.06.2018 20:00:00 26,0 15,1 5 3 17 9 SE -
19.06.2018 19:00:00 27,9 15,5 4 2 14 8 E 0,0
19.06.2018 18:00:00 28,8 16,4 4 2 18 10 ESE 0,0
19.06.2018 17:00:00 28,1 15,7 5 3 23 13 SE 0,0
19.06.2018 16:00:00 28,6 16,2 5 3 16 9 ESE 0,0
19.06.2018 15:00:00 28,6 15,9 5 3 22 12 E 0,0
19.06.2018 14:00:00 29,4 16,6 4 2 23 12 E -
19.06.2018 13:00:00 27,8 15,4 5 3 17 9 ENE 0,0
19.06.2018 12:00:00 26,1 14,5 6 3 15 8 NE 0,0
19.06.2018 11:00:00 25,0 15,1 5 3 16 9 ENE 0,0
19.06.2018 10:00:00 23,3 15,1 4 2 12 7 ENE 0,0
19.06.2018 09:00:00 20,5 14,1 3 1 7 4 NNE 0,0
19.06.2018 08:00:00 18,3 13,4 1 1 8 4 N -
19.06.2018 07:00:00 16,6 12,5 0 0 3 2 NW 0,0
19.06.2018 06:00:00 17,8 13,4 2 1 9 5 N 0,0
19.06.2018 05:00:00 18,2 13,9 1 1 6 3 WSW 0,0
19.06.2018 04:00:00 18,8 13,9 3 1 6 4 NNE 0,0
19.06.2018 03:00:00 19,2 15,1 1 1 7 4 N 0,0
19.06.2018 02:00:00 19,9 15,2 4 2 7 4 NE -
19.06.2018 01:00:00 20,4 15,2 0 0 3 2 N 0,0
19.06.2018 00:00:00 20,9 15,3 0 0 3 2 ESE 0,0
18.06.2018 23:00:00 22,1 15,2 0 0 14 7 SSW 0,0
18.06.2018 22:00:00 23,5 14,8 4 2 19 10 S 0,0
18.06.2018 21:00:00 25,3 14,4 11 6 23 12 NE 0,0
18.06.2018 20:00:00 27,9 14,9 10 5 21 12 ENE -
18.06.2018 19:00:00 30,1 15,8 5 3 23 12 E 0,0
18.06.2018 18:00:00 30,7 16,0 8 5 24 13 ENE 0,0
18.06.2018 17:00:00 32,4 17,5 3 2 18 10 E 0,0
18.06.2018 16:00:00 31,5 17,1 5 3 21 12 E 0,0
18.06.2018 15:00:00 31,5 16,6 10 5 23 13 ENE 0,0
18.06.2018 14:00:00 31,5 15,9 5 3 20 11 ENE -
18.06.2018 13:00:00 30,7 15,5 2 1 14 8 E 0,0
18.06.2018 12:00:00 28,9 14,7 4 2 13 7 S 0,0
18.06.2018 11:00:00 26,7 14,1 2 1 7 4 SW 0,0
18.06.2018 10:00:00 24,8 13,9 1 1 7 4 NE 0,0
18.06.2018 09:00:00 21,0 13,0 2 1 9 5 NNW 0,0
18.06.2018 08:00:00 18,1 13,0 0 0 9 5 W -
18.06.2018 07:00:00 17,8 11,6 3 1 11 6 N 0,0
18.06.2018 06:00:00 18,0 14,3 1 1 6 3 NNE 0,0
18.06.2018 05:00:00 18,3 13,4 0 0 4 2 N 0,0
18.06.2018 04:00:00 19,1 13,9 1 1 7 4 N 0,0
18.06.2018 03:00:00 19,7 11,2 4 2 8 5 NNE 0,0
18.06.2018 02:00:00 19,6 10,9 1 1 6 3 NE -
18.06.2018 01:00:00 20,4 9,9 0 0 3 2 N 0,0
18.06.2018 00:00:00 21,2 9,4 0 0 6 4 E 0,0
17.06.2018 23:00:00 22,7 9,2 3 1 12 7 SW 0,0
17.06.2018 22:00:00 24,1 10,8 3 2 15 8 SSW 0,0
17.06.2018 21:00:00 25,9 12,3 6 3 18 10 SSW 0,0
17.06.2018 20:00:00 27,3 12,8 8 5 22 12 SSW -
17.06.2018 19:00:00 29,0 13,7 9 5 19 11 SW 0,0
17.06.2018 18:00:00 29,9 14,4 9 5 22 12 S 0,0
17.06.2018 17:00:00 30,0 14,5 10 6 22 12 SSW 0,0
17.06.2018 16:00:00 31,2 15,2 8 4 20 11 SSW 0,0
17.06.2018 15:00:00 31,7 14,3 8 4 22 12 NE 0,0
17.06.2018 14:00:00 30,2 12,6 8 4 27 14 NE -
17.06.2018 13:00:00 29,7 12,1 8 4 25 13 ENE 0,0
17.06.2018 12:00:00 27,7 10,4 8 4 18 10 NE 0,0
17.06.2018 11:00:00 27,0 11,4 3 2 14 8 ENE 0,0
17.06.2018 10:00:00 24,1 12,4 4 2 12 6 N 0,0
17.06.2018 09:00:00 20,5 11,1 6 3 13 7 NW 0,0
17.06.2018 08:00:00 18,3 10,4 4 2 11 6 NNW -
17.06.2018 07:00:00 17,8 10,2 4 2 12 7 NW 0,0
17.06.2018 06:00:00 17,9 10,3 1 0 11 6 NNW 0,0
17.06.2018 05:00:00 18,4 10,8 4 2 10 5 N 0,0
17.06.2018 04:00:00 18,5 11,6 6 3 11 6 NNE 0,0
17.06.2018 03:00:00 19,2 14,0 4 2 11 6 NE 0,0
17.06.2018 02:00:00 19,7 13,4 4 2 11 6 NE -
17.06.2018 01:00:00 20,4 13,2 2 1 11 6 NE 0,0
17.06.2018 00:00:00 21,3 11,9 4 2 17 9 ENE 0,0
16.06.2018 23:00:00 22,4 10,5 8 5 17 9 NE 0,0
16.06.2018 22:00:00 23,6 9,9 1 1 7 4 ENE 0,0
16.06.2018 21:00:00 25,0 10,4 7 4 16 9 SW 0,0
16.06.2018 20:00:00 27,1 12,0 8 5 19 10 SSW -
16.06.2018 19:00:00 29,0 12,4 9 5 22 12 SSW 0,0
16.06.2018 18:00:00 30,5 12,4 8 4 21 11 SSW 0,0
16.06.2018 17:00:00 29,9 11,4 11 6 26 14 SW 0,0
16.06.2018 16:00:00 30,9 10,8 10 5 25 13 SSW 0,0
16.06.2018 15:00:00 32,5 13,7 3 2 23 12 N 0,0

tt = temperature
td = dewpoint
ff = wind speed
fx = gusts
dd = wind direction
rr = precipitation

Next stations